Time;durP1;ratioP1;P1;durP2;ratioP2;P2;SDS_P1;SDS_P2;PMS_P1;PMS_P2;Temp;Humidity;BMP_temperature;BMP_pressure;BME280_temperature;BME280_humidity;BME280_pressure;Samples;Min_cycle;Max_cycle;Signal;HPM_P1;HPM_P2
2021/08/07 00:00:06;;;;;;;0.10;0.10;;;19.50;99.90;;;;;;5025082;28;20029;-87
2021/08/07 00:02:32;;;;;;;0.10;0.10;;;19.50;99.90;;;;;;5031100;28;20040;-87
2021/08/07 00:04:57;;;;;;;0.10;0.10;;;19.50;99.90;;;;;;5021581;28;20042;-87
2021/08/07 00:07:26;;;;;;;0.10;0.10;;;19.40;99.90;;;;;;5021133;28;20372;-87
2021/08/07 00:09:52;;;;;;;0.00;0.00;;;19.50;99.90;;;;;;5022111;28;20025;-87
2021/08/07 00:12:18;;;;;;;0.10;0.10;;;19.40;99.90;;;;;;5024604;28;20076;-86
2021/08/07 00:14:44;;;;;;;0.00;0.00;;;19.50;99.90;;;;;;5026917;28;20056;-86
2021/08/07 00:17:10;;;;;;;0.00;0.00;;;19.50;99.90;;;;;;5029427;28;20084;-87
2021/08/07 00:19:36;;;;;;;0.10;0.10;;;19.50;99.90;;;;;;5023740;28;20482;-87
2021/08/07 00:22:05;;;;;;;0.00;0.00;;;19.50;99.90;;;;;;5022469;28;20041;-87
2021/08/07 00:24:31;;;;;;;0.00;0.00;;;19.40;99.90;;;;;;5021694;28;20116;-87
2021/08/07 00:26:57;;;;;;;0.00;0.00;;;19.40;99.90;;;;;;5021194;28;20471;-87
2021/08/07 00:29:23;;;;;;;0.00;0.00;;;19.50;99.90;;;;;;5022103;28;20026;-87
2021/08/07 00:31:49;;;;;;;0.00;0.00;;;19.50;99.90;;;;;;5030978;28;20052;-87
2021/08/07 00:34:14;;;;;;;0.05;0.05;;;19.40;99.90;;;;;;5031921;28;20410;-87
2021/08/07 00:36:41;;;;;;;0.00;0.00;;;19.40;99.90;;;;;;5059145;28;20018;-87
2021/08/07 00:39:07;;;;;;;0.00;0.00;;;19.40;99.90;;;;;;5042525;28;20010;-87
2021/08/07 00:41:33;;;;;;;0.03;0.03;;;19.40;99.90;;;;;;5042757;28;20049;-86
2021/08/07 00:43:59;;;;;;;0.03;0.03;;;19.40;99.90;;;;;;5043415;28;20048;-87
2021/08/07 00:46:24;;;;;;;0.00;0.00;;;19.40;99.90;;;;;;5043803;28;20041;-88
2021/08/07 00:48:50;;;;;;;0.00;0.00;;;19.40;99.90;;;;;;5032368;28;20060;-87
2021/08/07 00:51:17;;;;;;;0.00;0.00;;;19.40;99.90;;;;;;5024557;28;20055;-87
2021/08/07 00:53:45;;;;;;;0.00;0.00;;;19.40;99.90;;;;;;5022235;28;20040;-87
2021/08/07 00:56:11;;;;;;;0.10;0.10;;;19.40;99.90;;;;;;5028392;28;20044;-87
2021/08/07 00:58:37;;;;;;;0.05;0.05;;;19.40;99.90;;;;;;5037169;28;20037;-87
2021/08/07 01:01:09;;;;;;;0.00;0.00;;;19.40;99.90;;;;;;5033238;28;20140;-87
2021/08/07 01:03:45;;;;;;;0.00;0.00;;;19.40;99.90;;;;;;5047650;28;20052;-87
2021/08/07 01:06:26;;;;;;;0.00;0.00;;;19.40;99.90;;;;;;5028388;28;20455;-87
2021/08/07 01:09:11;;;;;;;0.10;0.10;;;19.40;99.90;;;;;;5023415;28;20034;-87
2021/08/07 01:11:53;;;;;;;0.10;0.10;;;19.40;99.90;;;;;;5028143;28;20490;-87
2021/08/07 01:14:25;;;;;;;0.00;0.00;;;19.40;99.90;;;;;;5042709;28;20041;-87
2021/08/07 01:16:53;;;;;;;0.00;0.00;;;19.40;99.90;;;;;;5040343;28;20089;-87
2021/08/07 01:19:20;;;;;;;0.00;0.00;;;19.40;99.90;;;;;;5040434;28;20047;-87
2021/08/07 01:21:53;;;;;;;0.00;0.00;;;19.40;99.90;;;;;;5043861;28;20029;-87
2021/08/07 01:25:01;;;;;;;0.00;0.00;;;19.40;99.90;;;;;;5029298;28;20092;-87
2021/08/07 01:27:30;;;;;;;0.00;0.00;;;19.40;99.90;;;;;;4929573;29;20575;-87
2021/08/07 01:29:57;;;;;;;0.10;0.10;;;19.30;99.90;;;;;;4924404;29;20066;-87
2021/08/07 01:32:30;;;;;;;0.10;0.10;;;19.30;99.90;;;;;;4975546;28;20107;-86
2021/08/07 01:34:56;;;;;;;0.00;0.00;;;19.30;99.90;;;;;;5021053;28;20207;-87
2021/08/07 01:37:23;;;;;;;0.00;0.00;;;19.30;99.90;;;;;;5046620;28;20113;-87
2021/08/07 01:39:54;;;;;;;0.10;0.10;;;19.20;99.90;;;;;;5042432;28;20036;-87
2021/08/07 01:42:20;;;;;;;0.10;0.10;;;19.20;99.90;;;;;;5022290;28;20044;-87
2021/08/07 01:44:46;;;;;;;0.10;0.10;;;19.20;99.90;;;;;;5021436;28;20079;-88
2021/08/07 01:47:39;;;;;;;0.03;0.03;;;19.30;99.90;;;;;;5026440;28;20041;-87
2021/08/07 01:50:13;;;;;;;0.00;0.00;;;19.30;99.90;;;;;;5021929;28;20399;-87
2021/08/07 01:52:54;;;;;;;0.00;0.00;;;19.20;99.90;;;;;;5022198;28;20475;-87
2021/08/07 01:55:52;;;;;;;0.00;0.00;;;19.30;99.90;;;;;;5023904;28;20203;-87
2021/08/07 01:58:38;;;;;;;0.10;0.10;;;19.30;99.90;;;;;;5035917;28;20041;-87
2021/08/07 02:01:11;;;;;;;0.00;0.00;;;19.20;99.90;;;;;;5023756;28;20048;-88
2021/08/07 02:03:42;;;;;;;0.00;0.00;;;19.20;99.90;;;;;;5019946;28;20135;-88
2021/08/07 02:06:09;;;;;;;0.00;0.00;;;19.20;99.90;;;;;;5020097;28;20062;-88
2021/08/07 02:08:40;;;;;;;0.00;0.00;;;19.20;99.90;;;;;;5037524;28;20029;-88
2021/08/07 02:11:07;;;;;;;0.10;0.10;;;19.20;99.90;;;;;;5018711;28;20050;-88
2021/08/07 02:13:34;;;;;;;0.10;0.10;;;19.20;99.90;;;;;;5019334;28;20040;-88
2021/08/07 02:16:06;;;;;;;0.10;0.10;;;19.20;99.90;;;;;;5021045;28;20041;-88
2021/08/07 02:18:33;;;;;;;0.10;0.10;;;19.30;99.90;;;;;;5029621;28;20057;-88
2021/08/07 02:21:05;;;;;;;0.00;0.00;;;19.20;99.90;;;;;;5047390;28;20410;-89
2021/08/07 02:23:31;;;;;;;0.10;0.10;;;19.20;99.90;;;;;;5018861;28;20029;-88
2021/08/07 02:26:00;;;;;;;0.00;0.00;;;19.30;99.90;;;;;;5038235;28;20095;-88
2021/08/07 02:28:27;;;;;;;0.00;0.00;;;19.30;99.90;;;;;;5022395;28;20179;-87
2021/08/07 02:30:53;;;;;;;0.00;0.00;;;19.20;99.90;;;;;;5021640;28;20620;-88
2021/08/07 02:33:22;;;;;;;0.00;0.00;;;19.20;99.90;;;;;;5021440;28;20044;-88
2021/08/07 02:35:51;;;;;;;0.00;0.00;;;19.20;99.90;;;;;;5020052;28;20497;-88
2021/08/07 02:38:18;;;;;;;0.03;0.03;;;19.20;99.90;;;;;;5040092;28;20545;-88
2021/08/07 02:40:44;;;;;;;0.10;0.10;;;19.20;99.90;;;;;;5019623;28;20501;-88
2021/08/07 02:43:13;;;;;;;0.00;0.00;;;19.20;99.90;;;;;;5021944;28;20120;-88
2021/08/07 02:45:39;;;;;;;0.00;0.00;;;19.30;99.90;;;;;;5041075;28;20056;-88
2021/08/07 02:48:06;;;;;;;0.00;0.00;;;19.20;99.90;;;;;;5040904;28;20033;-89
2021/08/07 02:50:33;;;;;;;0.10;0.10;;;19.20;99.90;;;;;;5058946;28;20013;-88
2021/08/07 02:52:59;;;;;;;0.00;0.00;;;19.20;99.90;;;;;;5041540;28;20025;-88
2021/08/07 02:55:25;;;;;;;0.10;0.10;;;19.20;99.90;;;;;;5026389;28;20171;-88
2021/08/07 02:57:53;;;;;;;0.00;0.00;;;19.20;99.90;;;;;;5004786;28;20050;-88
2021/08/07 03:00:19;;;;;;;0.10;0.10;;;19.20;99.90;;;;;;5039004;28;20033;-88
2021/08/07 03:02:45;;;;;;;0.00;0.00;;;19.20;99.90;;;;;;5036270;28;20034;-88
2021/08/07 03:05:11;;;;;;;0.00;0.00;;;19.10;99.90;;;;;;5019477;28;20095;-88
2021/08/07 03:07:40;;;;;;;0.00;0.00;;;19.10;99.90;;;;;;5020214;28;20402;-88
2021/08/07 03:10:08;;;;;;;0.00;0.00;;;19.10;99.90;;;;;;5023344;28;20124;-88
2021/08/07 03:12:35;;;;;;;0.05;0.05;;;19.10;99.90;;;;;;5034398;28;20064;-88
2021/08/07 03:15:01;;;;;;;0.10;0.10;;;19.10;99.90;;;;;;5025497;28;20041;-88
2021/08/07 03:17:27;;;;;;;0.00;0.00;;;19.10;99.90;;;;;;5017780;28;20045;-88
2021/08/07 03:19:53;;;;;;;0.00;0.00;;;19.10;99.90;;;;;;5018870;28;20124;-88
2021/08/07 03:22:19;;;;;;;0.00;0.00;;;19.10;99.90;;;;;;5020078;28;20033;-88
2021/08/07 03:24:48;;;;;;;0.00;0.00;;;19.10;99.90;;;;;;5021506;28;20076;-88
2021/08/07 03:27:13;;;;;;;0.00;0.00;;;19.10;99.90;;;;;;5019968;28;20038;-88
2021/08/07 03:29:42;;;;;;;0.00;0.00;;;19.10;99.90;;;;;;5017784;28;20104;-88
2021/08/07 03:32:08;;;;;;;0.00;0.00;;;19.20;99.90;;;;;;5019412;28;20040;-88
2021/08/07 03:34:34;;;;;;;0.10;0.10;;;19.20;99.90;;;;;;5019850;28;20034;-88
2021/08/07 03:36:59;;;;;;;0.00;0.00;;;19.20;99.90;;;;;;5017825;28;20129;-88
2021/08/07 03:39:25;;;;;;;0.10;0.10;;;19.20;99.90;;;;;;5035864;28;20086;-89
2021/08/07 03:41:52;;;;;;;0.10;0.10;;;19.30;99.90;;;;;;5018302;28;20061;-88
2021/08/07 03:44:18;;;;;;;0.10;0.10;;;19.20;99.90;;;;;;5018056;28;20052;-88
2021/08/07 03:46:44;;;;;;;0.00;0.00;;;19.30;99.90;;;;;;5018791;28;20030;-88
2021/08/07 03:49:10;;;;;;;0.08;0.08;;;19.30;99.90;;;;;;5018777;28;20042;-88
2021/08/07 03:51:36;;;;;;;0.10;0.10;;;19.30;99.90;;;;;;5020264;28;20034;-88
2021/08/07 03:54:01;;;;;;;0.00;0.00;;;19.40;99.90;;;;;;5027959;28;20030;-89
2021/08/07 03:56:27;;;;;;;0.10;0.10;;;19.40;99.90;;;;;;5019954;28;20041;-87
2021/08/07 03:58:53;;;;;;;0.05;0.05;;;19.40;99.90;;;;;;5019373;28;20034;-87
2021/08/07 04:01:19;;;;;;;0.00;0.00;;;19.40;99.90;;;;;;5018990;28;20410;-88
2021/08/07 04:03:44;;;;;;;0.00;0.00;;;19.50;99.90;;;;;;5037948;28;20030;-88
2021/08/07 04:06:10;;;;;;;0.00;0.00;;;19.50;99.90;;;;;;5021536;28;20046;-88
2021/08/07 04:08:36;;;;;;;0.00;0.00;;;19.60;99.90;;;;;;5036392;28;20038;-88
2021/08/07 04:11:02;;;;;;;0.00;0.00;;;19.70;99.90;;;;;;5018056;28;20034;-88
2021/08/07 04:13:27;;;;;;;0.00;0.00;;;19.70;99.90;;;;;;5018530;28;20030;-89
2021/08/07 04:15:53;;;;;;;0.00;0.00;;;19.80;99.90;;;;;;5024484;28;20033;-88
2021/08/07 04:18:19;;;;;;;0.00;0.00;;;19.80;99.90;;;;;;5049159;28;20068;-88
2021/08/07 04:20:44;;;;;;;0.08;0.08;;;19.90;99.90;;;;;;5018749;28;20073;-88
2021/08/07 04:23:10;;;;;;;0.00;0.00;;;20.00;99.90;;;;;;5017940;28;20038;-88
2021/08/07 04:25:36;;;;;;;0.00;0.00;;;20.10;99.90;;;;;;5017502;28;20049;-88
2021/08/07 04:28:02;;;;;;;0.10;0.10;;;20.10;99.90;;;;;;5017543;28;20040;-88
2021/08/07 04:30:28;;;;;;;0.00;0.00;;;20.20;99.90;;;;;;5022415;28;20091;-88
2021/08/07 04:32:54;;;;;;;0.00;0.00;;;20.20;99.90;;;;;;5038251;28;20033;-88
2021/08/07 04:35:20;;;;;;;0.10;0.10;;;20.30;99.90;;;;;;5018048;28;20041;-88
2021/08/07 04:37:51;;;;;;;0.00;0.00;;;20.50;99.90;;;;;;5017871;28;20038;-88
2021/08/07 04:40:18;;;;;;;0.00;0.00;;;20.60;99.90;;;;;;5018463;28;20120;-88
2021/08/07 04:42:44;;;;;;;0.00;0.00;;;20.70;99.90;;;;;;5026207;28;20087;-88
2021/08/07 04:45:11;;;;;;;0.00;0.00;;;20.70;99.90;;;;;;5028694;28;20041;-87
2021/08/07 04:47:48;;;;;;;0.00;0.00;;;20.80;99.90;;;;;;5022665;28;20069;-88
2021/08/07 04:50:14;;;;;;;0.00;0.00;;;20.90;99.90;;;;;;5021212;28;20184;-88
2021/08/07 04:52:39;;;;;;;0.10;0.10;;;20.90;99.90;;;;;;5021632;28;20085;-88
2021/08/07 04:55:06;;;;;;;0.00;0.00;;;20.90;99.90;;;;;;5021886;28;20041;-88
2021/08/07 04:57:31;;;;;;;0.00;0.00;;;21.00;99.90;;;;;;5021562;28;20041;-88
2021/08/07 04:59:57;;;;;;;0.00;0.00;;;21.00;99.90;;;;;;5027768;28;20040;-88
2021/08/07 05:02:23;;;;;;;0.00;0.00;;;21.10;99.90;;;;;;5022697;28;20093;-87
2021/08/07 05:04:49;;;;;;;0.00;0.00;;;21.10;99.90;;;;;;5039672;28;20582;-89
2021/08/07 05:07:14;;;;;;;0.00;0.00;;;21.10;99.90;;;;;;5028211;28;20083;-87
2021/08/07 05:09:40;;;;;;;0.00;0.00;;;21.20;99.90;;;;;;5040525;28;20042;-88
2021/08/07 05:12:06;;;;;;;0.00;0.00;;;21.30;99.90;;;;;;5020781;28;20140;-89
2021/08/07 05:14:31;;;;;;;0.00;0.00;;;21.30;99.90;;;;;;5020774;28;20064;-88
2021/08/07 05:16:58;;;;;;;0.00;0.00;;;21.40;99.90;;;;;;5020953;28;20123;-88
2021/08/07 05:19:23;;;;;;;0.00;0.00;;;21.50;99.90;;;;;;5038124;28;20049;-88
2021/08/07 05:21:49;;;;;;;0.10;0.10;;;21.60;99.90;;;;;;5022350;28;20188;-89
2021/08/07 05:24:15;;;;;;;0.00;0.00;;;21.60;99.90;;;;;;5021301;28;20052;-87
2021/08/07 05:26:40;;;;;;;0.05;0.05;;;21.60;99.90;;;;;;5020851;28;20038;-87
2021/08/07 05:29:09;;;;;;;0.00;0.00;;;21.60;99.90;;;;;;5038458;28;20052;-87
2021/08/07 05:31:37;;;;;;;0.00;0.00;;;21.60;99.90;;;;;;5021661;28;20101;-87
2021/08/07 05:34:03;;;;;;;0.00;0.00;;;21.50;99.90;;;;;;5046567;28;20033;-86
2021/08/07 05:36:28;;;;;;;0.00;0.00;;;21.50;99.90;;;;;;5034591;28;20033;-87
2021/08/07 05:38:54;;;;;;;0.00;0.00;;;21.40;99.90;;;;;;5042318;28;20025;-87
2021/08/07 05:41:20;;;;;;;0.08;0.08;;;21.30;99.90;;;;;;5042121;28;20042;-87
2021/08/07 05:43:45;;;;;;;0.00;0.00;;;21.30;99.90;;;;;;5058210;28;20044;-87
2021/08/07 05:46:11;;;;;;;0.00;0.00;;;21.20;99.90;;;;;;5042241;28;20049;-87
2021/08/07 05:48:37;;;;;;;0.10;0.10;;;21.20;99.90;;;;;;5023910;28;20068;-87
2021/08/07 05:51:02;;;;;;;0.00;0.00;;;21.10;99.90;;;;;;5022862;28;20038;-87
2021/08/07 05:53:28;;;;;;;0.00;0.00;;;21.10;99.90;;;;;;5019548;28;20033;-87
2021/08/07 05:55:54;;;;;;;0.00;0.00;;;21.10;99.90;;;;;;5020382;28;20104;-87
2021/08/07 05:58:21;;;;;;;0.00;0.00;;;21.10;99.90;;;;;;5021118;28;20032;-87
2021/08/07 06:00:47;;;;;;;0.05;0.05;;;21.10;99.90;;;;;;5028757;28;20026;-87
2021/08/07 06:03:13;;;;;;;0.10;0.10;;;21.30;99.90;;;;;;5057599;28;20037;-87
2021/08/07 06:05:39;;;;;;;0.03;0.03;;;21.30;99.90;;;;;;5027889;28;20057;-87
2021/08/07 06:08:04;;;;;;;0.00;0.00;;;21.30;99.90;;;;;;5040034;28;20021;-87
2021/08/07 06:10:30;;;;;;;0.00;0.00;;;21.40;99.90;;;;;;5027772;28;20048;-87
2021/08/07 06:12:56;;;;;;;0.00;0.00;;;21.40;99.90;;;;;;5026799;28;20037;-87
2021/08/07 06:15:22;;;;;;;0.00;0.00;;;21.40;99.90;;;;;;5020739;28;20137;-87
2021/08/07 06:17:47;;;;;;;0.00;0.00;;;21.40;99.90;;;;;;5020763;28;20025;-87
2021/08/07 06:20:14;;;;;;;0.00;0.00;;;21.40;99.90;;;;;;5020489;28;20056;-87
2021/08/07 06:22:40;;;;;;;0.00;0.00;;;21.50;99.90;;;;;;5023217;28;20046;-88
2021/08/07 06:25:07;;;;;;;0.00;0.00;;;21.60;99.90;;;;;;5034759;28;20131;-87
2021/08/07 06:27:33;;;;;;;0.00;0.00;;;21.80;99.90;;;;;;5024256;28;20132;-86
2021/08/07 06:29:59;;;;;;;0.00;0.00;;;22.10;99.90;;;;;;5051396;28;20037;-87
2021/08/07 06:32:25;;;;;;;0.10;0.10;;;22.60;99.90;;;;;;5028349;28;20038;-87
2021/08/07 06:34:51;;;;;;;0.00;0.00;;;23.00;99.90;;;;;;5047485;28;20056;-88
2021/08/07 06:37:17;;;;;;;0.00;0.00;;;23.40;99.90;;;;;;5034038;28;20048;-89
2021/08/07 06:39:42;;;;;;;0.00;0.00;;;23.80;99.90;;;;;;5027388;28;20037;-87
2021/08/07 06:42:08;;;;;;;0.00;0.00;;;24.10;99.90;;;;;;5023512;28;20058;-87
2021/08/07 06:44:34;;;;;;;0.00;0.00;;;24.40;99.90;;;;;;5029549;28;20056;-87
2021/08/07 06:47:00;;;;;;;0.00;0.00;;;24.90;99.90;;;;;;5030295;28;20103;-89
2021/08/07 06:49:25;;;;;;;0.00;0.00;;;25.30;99.90;;;;;;5027320;28;20374;-88
2021/08/07 06:51:52;;;;;;;0.00;0.00;;;26.10;99.90;;;;;;5024384;28;20487;-87
2021/08/07 06:54:18;;;;;;;0.00;0.00;;;26.80;99.90;;;;;;5042195;28;20071;-87
2021/08/07 06:56:48;;;;;;;0.00;0.00;;;27.30;99.90;;;;;;5023903;28;20042;-88
2021/08/07 06:59:20;;;;;;;0.00;0.00;;;27.80;99.90;;;;;;5037153;28;20024;-88
2021/08/07 07:01:48;;;;;;;0.00;0.00;;;28.40;99.90;;;;;;5039084;28;20025;-89
2021/08/07 07:04:14;;;;;;;0.00;0.00;;;29.10;99.90;;;;;;5037475;28;20025;-89
2021/08/07 07:06:39;;;;;;;0.00;0.00;;;29.60;99.90;;;;;;5033752;28;20044;-89
2021/08/07 07:09:05;;;;;;;0.00;0.00;;;29.80;99.90;;;;;;5027666;28;20487;-88
2021/08/07 07:11:31;;;;;;;0.00;0.00;;;29.80;99.90;;;;;;5035696;28;20041;-88
2021/08/07 07:13:58;;;;;;;0.00;0.00;;;29.60;99.90;;;;;;5040803;28;20034;-88
2021/08/07 07:16:24;;;;;;;0.00;0.00;;;29.30;99.90;;;;;;5041720;28;20033;-88
2021/08/07 07:18:50;;;;;;;0.00;0.00;;;29.00;99.90;;;;;;5041238;28;20029;-89
2021/08/07 07:21:16;;;;;;;0.00;0.00;;;28.40;99.90;;;;;;5036421;28;20045;-88
2021/08/07 07:23:41;;;;;;;0.00;0.00;;;27.80;99.90;;;;;;5052932;28;20034;-88
2021/08/07 07:26:07;;;;;;;0.00;0.00;;;27.20;99.90;;;;;;5029544;28;20045;-89
2021/08/07 07:28:33;;;;;;;0.00;0.00;;;26.90;99.90;;;;;;5021094;28;20458;-88
2021/08/07 07:30:58;;;;;;;0.00;0.00;;;26.80;99.90;;;;;;5040949;28;20045;-87
2021/08/07 07:33:24;;;;;;;0.00;0.00;;;26.80;99.90;;;;;;5019781;28;20033;-88
2021/08/07 07:35:50;;;;;;;0.00;0.00;;;26.70;99.90;;;;;;5020622;28;20091;-88
2021/08/07 07:38:16;;;;;;;0.00;0.00;;;26.60;99.90;;;;;;5039287;28;20026;-89
2021/08/07 07:40:44;;;;;;;0.00;0.00;;;26.60;99.90;;;;;;5039015;28;20065;-89
2021/08/07 07:43:10;;;;;;;0.00;0.00;;;26.90;99.90;;;;;;5023395;28;20530;-89
2021/08/07 07:45:35;;;;;;;0.00;0.00;;;27.10;99.90;;;;;;5020657;28;20073;-89
2021/08/07 07:48:01;;;;;;;0.00;0.00;;;27.20;99.90;;;;;;5020511;28;20034;-88
2021/08/07 07:50:30;;;;;;;0.00;0.00;;;27.30;99.90;;;;;;5020108;28;20501;-89
2021/08/07 07:52:56;;;;;;;0.00;0.00;;;27.20;99.90;;;;;;5026290;28;20037;-88
2021/08/07 07:55:21;;;;;;;0.00;0.00;;;27.20;99.90;;;;;;5023440;28;20041;-88
2021/08/07 07:57:47;;;;;;;0.00;0.00;;;27.40;99.90;;;;;;5021844;28;20034;-87
2021/08/07 08:00:13;;;;;;;0.00;0.00;;;27.70;99.90;;;;;;5025130;28;20101;-88
2021/08/07 08:02:39;;;;;;;0.00;0.00;;;28.00;99.90;;;;;;5033188;28;20033;-88
2021/08/07 08:05:05;;;;;;;0.00;0.00;;;28.30;99.90;;;;;;5028888;28;20052;-88
2021/08/07 08:07:31;;;;;;;0.00;0.00;;;28.60;99.90;;;;;;5031535;28;20044;-88
2021/08/07 08:09:57;;;;;;;0.00;0.00;;;28.90;99.90;;;;;;5023161;28;20060;-88
2021/08/07 08:12:22;;;;;;;0.00;0.00;;;29.00;99.90;;;;;;5027462;28;20096;-89
2021/08/07 08:14:48;;;;;;;0.00;0.00;;;29.00;99.90;;;;;;5024736;28;20486;-88
2021/08/07 08:17:14;;;;;;;0.00;0.00;;;29.20;99.40;;;;;;5045453;28;20106;-88
2021/08/07 08:19:41;;;;;;;0.00;0.00;;;29.30;99.30;;;;;;5033463;28;20041;-88
2021/08/07 08:22:07;;;;;;;0.00;0.00;;;29.30;99.60;;;;;;5036969;28;20068;-88
2021/08/07 08:24:33;;;;;;;0.00;0.00;;;29.30;97.50;;;;;;5032701;28;20109;-88
2021/08/07 08:26:58;;;;;;;0.00;0.00;;;29.10;98.80;;;;;;5033065;28;20045;-88
2021/08/07 08:29:24;;;;;;;0.00;0.00;;;29.00;98.30;;;;;;5036350;28;20037;-89
2021/08/07 08:31:50;;;;;;;0.00;0.00;;;29.00;99.10;;;;;;5038792;28;20045;-87
2021/08/07 08:34:16;;;;;;;0.00;0.00;;;28.90;94.20;;;;;;5036148;28;20263;-87
2021/08/07 08:36:42;;;;;;;0.00;0.00;;;28.70;98.20;;;;;;5035646;28;20095;-87
2021/08/07 08:39:07;;;;;;;0.00;0.00;;;28.70;97.60;;;;;;5031853;28;20040;-89
2021/08/07 08:41:35;;;;;;;0.00;0.00;;;28.70;99.90;;;;;;5039329;28;20041;-89
2021/08/07 08:44:01;;;;;;;0.00;0.00;;;28.80;99.90;;;;;;5034473;28;20025;-89
2021/08/07 08:46:27;;;;;;;0.00;0.00;;;29.00;98.90;;;;;;5036999;28;20041;-89
2021/08/07 08:48:54;;;;;;;0.00;0.00;;;29.40;99.20;;;;;;5041366;28;20025;-87
2021/08/07 08:51:25;;;;;;;0.00;0.00;;;29.90;98.50;;;;;;5041140;28;20042;-89
2021/08/07 08:53:52;;;;;;;0.00;0.00;;;30.30;97.00;;;;;;5042557;28;20042;-87
2021/08/07 08:56:18;;;;;;;0.00;0.00;;;31.00;97.20;;;;;;5042732;28;20050;-87
2021/08/07 08:58:45;;;;;;;0.00;0.00;;;31.90;92.50;;;;;;5042576;28;20042;-87
2021/08/07 09:01:11;;;;;;;0.00;0.00;;;32.30;87.40;;;;;;5030564;28;20042;-89
2021/08/07 09:03:37;;;;;;;0.00;0.00;;;32.40;79.90;;;;;;5023759;28;20044;-87
2021/08/07 09:06:03;;;;;;;0.00;0.00;;;32.70;79.50;;;;;;5023210;28;20049;-87
2021/08/07 09:08:30;;;;;;;0.00;0.00;;;33.20;80.80;;;;;;5023540;28;20124;-88
2021/08/07 09:11:22;;;;;;;0.00;0.00;;;33.70;83.50;;;;;;5041022;28;20041;-87
2021/08/07 09:13:48;;;;;;;0.05;0.05;;;34.00;75.60;;;;;;5021973;28;20132;-90
2021/08/07 09:16:17;;;;;;;0.00;0.00;;;34.20;76.10;;;;;;5020791;28;20034;-90
2021/08/07 09:18:43;;;;;;;0.00;0.00;;;34.40;72.40;;;;;;5020628;28;20124;-90
2021/08/07 09:21:17;;;;;;;0.00;0.00;;;34.90;73.70;;;;;;5022754;28;20080;-88
2021/08/07 09:23:44;;;;;;;0.08;0.08;;;35.50;68.70;;;;;;5038768;28;20113;-88
2021/08/07 09:26:14;;;;;;;0.03;0.03;;;35.90;70.60;;;;;;5030946;28;20057;-88
2021/08/07 09:28:44;;;;;;;0.00;0.00;;;36.40;66.80;;;;;;5022285;28;20065;-88
2021/08/07 09:31:10;;;;;;;0.10;0.10;;;36.60;66.90;;;;;;5020594;28;20045;-88
2021/08/07 09:33:37;;;;;;;0.10;0.10;;;37.00;65.50;;;;;;5021802;28;20060;-87
2021/08/07 09:36:02;;;;;;;0.10;0.10;;;37.40;63.90;;;;;;5033068;28;20037;-88
2021/08/07 09:38:31;;;;;;;0.10;0.10;;;37.70;61.10;;;;;;5041164;28;20021;-88
2021/08/07 09:41:02;;;;;;;0.00;0.00;;;38.00;58.50;;;;;;5058805;28;20037;-88
2021/08/07 09:43:34;;;;;;;0.10;0.10;;;38.30;53.40;;;;;;5041773;28;20089;-88
2021/08/07 09:46:04;;;;;;;0.10;0.10;;;38.20;53.30;;;;;;5036057;28;20193;-88
2021/08/07 09:48:35;;;;;;;0.10;0.10;;;38.20;51.90;;;;;;5024049;28;20390;-88
2021/08/07 09:51:14;;;;;;;0.10;0.10;;;38.20;52.50;;;;;;5023113;28;20049;-88
2021/08/07 09:53:40;;;;;;;0.10;0.10;;;38.50;52.00;;;;;;5035262;28;20033;-88
2021/08/07 09:56:08;;;;;;;0.10;0.10;;;38.80;52.10;;;;;;5024211;28;20037;-88
2021/08/07 09:58:34;;;;;;;0.10;0.10;;;38.80;49.00;;;;;;5022266;28;20703;-88
2021/08/07 10:01:01;;;;;;;0.10;0.10;;;38.70;49.10;;;;;;5029200;28;20560;-88
2021/08/07 10:03:32;;;;;;;0.10;0.10;;;38.70;48.60;;;;;;5021672;28;20124;-88
2021/08/07 10:06:18;;;;;;;0.10;0.10;;;38.70;48.50;;;;;;5021924;28;20501;-88
2021/08/07 10:08:50;;;;;;;0.10;0.10;;;39.00;45.30;;;;;;5020843;28;20387;-87
2021/08/07 10:11:19;;;;;;;0.10;0.10;;;39.20;48.60;;;;;;5022320;28;20033;-87
2021/08/07 10:13:45;;;;;;;0.10;0.10;;;39.40;48.60;;;;;;5031301;28;20048;-88
2021/08/07 10:16:12;;;;;;;0.10;0.10;;;39.70;48.20;;;;;;5022520;28;20105;-88
2021/08/07 10:18:41;;;;;;;0.10;0.10;;;39.70;47.40;;;;;;5020581;28;20097;-88
2021/08/07 10:21:07;;;;;;;0.10;0.10;;;39.70;47.30;;;;;;5019811;28;20402;-88
2021/08/07 10:23:34;;;;;;;0.10;0.10;;;39.80;47.70;;;;;;5039444;28;20029;-88
2021/08/07 10:26:05;;;;;;;0.10;0.10;;;40.10;47.00;;;;;;5020834;28;20061;-87
2021/08/07 10:28:34;;;;;;;0.10;0.10;;;40.40;46.80;;;;;;5021508;28;20034;-88
2021/08/07 10:31:02;;;;;;;0.10;0.10;;;40.60;45.90;;;;;;5038468;28;20038;-87
2021/08/07 10:33:29;;;;;;;0.10;0.10;;;40.50;45.20;;;;;;5020817;28;20086;-87
2021/08/07 10:35:55;;;;;;;0.10;0.10;;;40.50;45.00;;;;;;5020927;28;20072;-87
2021/08/07 10:38:22;;;;;;;0.10;0.10;;;40.50;45.10;;;;;;5022133;28;20026;-87
2021/08/07 10:40:48;;;;;;;0.10;0.10;;;40.80;45.10;;;;;;5031815;28;20049;-88
2021/08/07 10:43:17;;;;;;;0.10;0.10;;;40.90;45.00;;;;;;5032570;28;20085;-88
2021/08/07 10:45:43;;;;;;;0.00;0.00;;;40.80;44.50;;;;;;5023104;28;20045;-88
2021/08/07 10:48:45;;;;;;;0.10;0.10;;;40.90;44.40;;;;;;5024115;28;20096;-89
2021/08/07 10:51:23;;;;;;;0.10;0.10;;;41.30;43.40;;;;;;5031321;28;20049;-87
2021/08/07 10:53:50;;;;;;;0.10;0.10;;;41.20;42.20;;;;;;5021080;28;20459;-87
2021/08/07 10:56:31;;;;;;;0.10;0.10;;;41.30;43.30;;;;;;5050609;28;20022;-88
2021/08/07 10:59:18;;;;;;;0.10;0.10;;;41.40;42.90;;;;;;5038484;28;20044;-90
2021/08/07 11:01:46;;;;;;;0.10;0.10;;;41.00;42.30;;;;;;5009725;28;20037;-90
2021/08/07 11:04:27;;;;;;;0.10;0.10;;;40.90;42.80;;;;;;5019882;28;20129;-89
2021/08/07 11:06:58;;;;;;;0.10;0.10;;;41.00;43.30;;;;;;5038100;28;20044;-89
2021/08/07 11:09:39;;;;;;;0.10;0.10;;;41.10;42.20;;;;;;5019178;28;20438;-89
2021/08/07 11:12:11;;;;;;;0.10;0.10;;;41.00;42.40;;;;;;5019854;28;20037;-90
2021/08/07 11:14:53;;;;;;;0.10;0.10;;;41.00;42.50;;;;;;5021226;28;20092;-90
2021/08/07 11:17:19;;;;;;;;;;;41.20;42.60;;;;;;5021892;28;20037;-89
2021/08/07 11:22:32;;;;;;;0.00;0.00;;;40.50;42.10;;;;;;5039178;28;20037;-89
2021/08/07 11:25:17;;;;;;;0.00;0.00;;;39.60;41.80;;;;;;5021840;28;20076;-89
2021/08/07 11:27:52;;;;;;;0.00;0.00;;;38.20;42.00;;;;;;5035550;28;20049;-90
2021/08/07 11:30:41;;;;;;;0.00;0.00;;;36.80;43.70;;;;;;5030945;28;20030;-89
2021/08/07 11:33:10;;;;;;;0.00;0.00;;;35.80;45.00;;;;;;5037083;28;20029;-89
2021/08/07 11:35:41;;;;;;;0.00;0.00;;;34.90;45.70;;;;;;5040769;28;20612;-88
2021/08/07 11:38:10;;;;;;;0.00;0.00;;;34.20;46.40;;;;;;5036912;28;20042;-88
2021/08/07 11:41:03;;;;;;;0.00;0.00;;;33.70;47.20;;;;;;5029492;28;20494;-88
2021/08/07 11:43:30;;;;;;;0.00;0.00;;;33.50;48.30;;;;;;4981236;28;20041;-88
2021/08/07 11:45:59;;;;;;;0.00;0.00;;;33.70;48.60;;;;;;5024227;28;20041;-88
2021/08/07 11:48:41;;;;;;;0.00;0.00;;;34.40;48.10;;;;;;5033955;28;20048;-89
2021/08/07 11:51:24;;;;;;;0.00;0.00;;;35.00;47.30;;;;;;5020196;28;20033;-90
2021/08/07 11:53:50;;;;;;;0.00;0.00;;;35.30;46.80;;;;;;5023598;28;20041;-89
2021/08/07 11:56:19;;;;;;;0.00;0.00;;;35.10;46.40;;;;;;5023766;28;20033;-89
2021/08/07 11:58:56;;;;;;;0.00;0.00;;;34.80;46.70;;;;;;5023524;28;20039;-89
2021/08/07 12:01:28;;;;;;;0.00;0.00;;;34.20;47.00;;;;;;5024216;28;20104;-88
2021/08/07 12:03:55;;;;;;;0.00;0.00;;;33.70;47.20;;;;;;5024533;28;20065;-88
2021/08/07 12:06:27;;;;;;;0.00;0.00;;;33.20;47.30;;;;;;5023883;28;20037;-88
2021/08/07 12:08:53;;;;;;;0.00;0.00;;;32.80;47.90;;;;;;5024318;28;20391;-89
2021/08/07 12:11:19;;;;;;;0.00;0.00;;;32.40;48.30;;;;;;5029960;28;20036;-89
2021/08/07 12:13:52;;;;;;;0.00;0.00;;;32.10;48.30;;;;;;5035302;28;20060;-88
2021/08/07 12:16:21;;;;;;;0.00;0.00;;;31.70;48.90;;;;;;5040978;28;20029;-88
2021/08/07 12:18:52;;;;;;;0.00;0.00;;;31.20;49.30;;;;;;5024771;28;20064;-88
2021/08/07 12:21:28;;;;;;;0.00;0.00;;;30.80;49.90;;;;;;5025426;28;20112;-88
2021/08/07 12:24:09;;;;;;;0.00;0.00;;;30.60;50.30;;;;;;5024707;28;20095;-88
2021/08/07 12:26:45;;;;;;;0.00;0.00;;;30.30;50.50;;;;;;5025569;28;20071;-88
2021/08/07 12:29:13;;;;;;;0.00;0.00;;;30.10;51.30;;;;;;5030485;28;20132;-88
2021/08/07 12:31:41;;;;;;;0.00;0.00;;;29.90;51.30;;;;;;5052454;28;20029;-88
2021/08/07 12:34:19;;;;;;;0.00;0.00;;;29.70;51.60;;;;;;5036046;28;20064;-88
2021/08/07 12:36:56;;;;;;;0.00;0.00;;;29.60;52.30;;;;;;5043533;28;20034;-88
2021/08/07 12:39:23;;;;;;;0.00;0.00;;;29.40;52.40;;;;;;5027610;28;20041;-88
2021/08/07 12:41:49;;;;;;;0.00;0.00;;;29.20;52.10;;;;;;5036757;28;20080;-88
2021/08/07 12:44:23;;;;;;;0.00;0.00;;;29.00;52.40;;;;;;5023981;28;20045;-88
2021/08/07 12:46:50;;;;;;;;;;;28.80;52.90;;;;;;5023706;28;20087;-89
2021/08/07 12:49:35;;;;;;;0.00;0.00;;;28.40;54.80;;;;;;5024618;28;20016;-87
2021/08/07 12:52:19;;;;;;;;;;;28.10;54.30;;;;;;5042302;28;20026;-87
2021/08/07 12:55:08;;;;;;;0.00;0.00;;;27.70;54.80;;;;;;5028315;28;20282;-87
2021/08/07 12:57:34;;;;;;;0.00;0.00;;;27.50;55.00;;;;;;5026859;28;20037;-88